Time;durP1;ratioP1;P1;durP2;ratioP2;P2;SDS_P1;SDS_P2;PMS_P1;PMS_P2;Temp;Humidity;BMP_temperature;BMP_pressure;BME280_temperature;BME280_humidity;BME280_pressure;Samples;Min_cycle;Max_cycle;Signal;HPM_P1;HPM_P2
2021/06/04 00:00:30;;;;;;;149.57;16.38;;;16.80;99.90;;;;;;4975870;28;20387;-85
2021/06/04 00:03:00;;;;;;;88.80;12.82;;;16.90;99.90;;;;;;5008910;28;20474;-85
2021/06/04 00:05:36;;;;;;;82.72;13.27;;;16.90;99.90;;;;;;5008572;28;20467;-86
2021/06/04 00:08:04;;;;;;;49.63;12.25;;;16.90;99.90;;;;;;4991209;28;20039;-85
2021/06/04 00:10:35;;;;;;;97.60;14.48;;;16.90;99.90;;;;;;4975280;28;20118;-85
2021/06/04 00:13:31;;;;;;;96.03;12.75;;;16.90;99.90;;;;;;4991981;28;20471;-85
2021/06/04 00:16:08;;;;;;;94.32;13.20;;;16.90;99.90;;;;;;4991637;28;20126;-85
2021/06/04 00:18:37;;;;;;;35.10;10.88;;;16.90;99.90;;;;;;5008838;28;20043;-85
2021/06/04 00:21:08;;;;;;;11.55;9.85;;;16.80;99.90;;;;;;4975533;28;20118;-85
2021/06/04 00:23:37;;;;;;;25.17;10.13;;;16.80;99.90;;;;;;4991068;28;20039;-85
2021/06/04 00:26:05;;;;;;;30.60;11.30;;;16.80;99.90;;;;;;4975925;28;20387;-85
2021/06/04 00:28:33;;;;;;;41.58;11.00;;;16.80;99.90;;;;;;5008249;28;20035;-86
2021/06/04 00:31:01;;;;;;;14.73;10.10;;;16.70;99.90;;;;;;4975450;28;20049;-86
2021/06/04 00:33:28;;;;;;;18.90;11.90;;;16.70;99.90;;;;;;4991105;28;20043;-86
2021/06/04 00:35:55;;;;;;;23.10;11.82;;;16.70;99.90;;;;;;4975599;28;20034;-85
2021/06/04 00:38:22;;;;;;;28.55;12.07;;;16.70;99.90;;;;;;4959326;28;20038;-86
2021/06/04 00:40:53;;;;;;;48.03;16.48;;;16.70;99.90;;;;;;4959912;28;20038;-86
2021/06/04 00:43:22;;;;;;;18.95;14.38;;;16.80;99.90;;;;;;4991049;28;20039;-86
2021/06/04 00:45:51;;;;;;;16.80;13.73;;;16.80;99.90;;;;;;4975792;28;20169;-86
2021/06/04 00:48:19;;;;;;;50.30;14.90;;;16.80;99.90;;;;;;4991021;28;20038;-86
2021/06/04 00:51:02;;;;;;;35.22;14.23;;;16.80;99.90;;;;;;4991633;28;20043;-86
2021/06/04 00:53:29;;;;;;;15.35;13.48;;;16.80;99.90;;;;;;4991005;28;20384;-87
2021/06/04 00:55:57;;;;;;;71.60;16.17;;;16.90;99.90;;;;;;4976004;28;20081;-87
2021/06/04 00:58:30;;;;;;;58.63;16.30;;;16.90;99.90;;;;;;4975138;28;20035;-86
2021/06/04 01:00:59;;;;;;;43.13;15.02;;;16.90;99.90;;;;;;4991313;28;20030;-87
2021/06/04 01:03:31;;;;;;;17.58;13.30;;;16.90;99.90;;;;;;5008144;28;20483;-87
2021/06/04 01:06:06;;;;;;;17.27;14.35;;;16.90;99.90;;;;;;4991814;28;20039;-87
2021/06/04 01:08:53;;;;;;;84.45;16.52;;;16.90;99.90;;;;;;4991954;28;20038;-86
2021/06/04 01:11:23;;;;;;;47.28;16.00;;;16.90;99.90;;;;;;4990965;28;20454;-87
2021/06/04 01:14:11;;;;;;;80.20;15.90;;;16.90;99.90;;;;;;4991294;28;20502;-87
2021/06/04 01:16:59;;;;;;;66.65;14.68;;;16.90;99.90;;;;;;4990847;28;20101;-86
2021/06/04 01:19:53;;;;;;;49.03;16.48;;;16.90;99.90;;;;;;4991039;28;20035;-86
2021/06/04 01:22:28;;;;;;;25.75;15.35;;;16.90;99.90;;;;;;4994328;28;20034;-86
2021/06/04 01:25:15;;;;;;;31.60;15.88;;;16.90;99.90;;;;;;4994760;28;20047;-85
2021/06/04 01:27:45;;;;;;;120.15;17.88;;;16.90;99.90;;;;;;4993771;28;20126;-86
2021/06/04 01:30:35;;;;;;;26.27;16.50;;;16.90;99.90;;;;;;4994834;28;20034;-86
2021/06/04 01:33:16;;;;;;;64.43;17.48;;;17.00;99.90;;;;;;4994942;28;20035;-86
2021/06/04 01:35:47;;;;;;;30.88;15.73;;;16.90;99.90;;;;;;4994836;28;20097;-86
2021/06/04 01:38:19;;;;;;;52.97;17.10;;;16.90;99.90;;;;;;5012046;28;20077;-86
2021/06/04 01:40:51;;;;;;;57.55;15.40;;;17.00;99.90;;;;;;4994565;28;20038;-86
2021/06/04 01:43:40;;;;;;;64.35;19.10;;;16.90;99.90;;;;;;4994707;28;20078;-86
2021/06/04 01:46:13;;;;;;;99.13;18.58;;;17.00;99.90;;;;;;4982838;28;20049;-87
2021/06/04 01:48:43;;;;;;;35.00;18.45;;;17.00;99.90;;;;;;5011518;28;20552;-86
2021/06/04 01:51:37;;;;;;;24.48;17.75;;;17.00;99.90;;;;;;5012057;28;20077;-87
2021/06/04 01:54:20;;;;;;;25.38;18.08;;;17.00;99.90;;;;;;4994760;28;20053;-86
2021/06/04 01:56:53;;;;;;;59.08;19.02;;;17.00;99.90;;;;;;5011499;28;20039;-86
2021/06/04 01:59:31;;;;;;;30.17;20.63;;;16.90;99.90;;;;;;5009912;28;20035;-86
2021/06/04 02:01:59;;;;;;;177.73;21.33;;;17.00;99.90;;;;;;4995013;28;20394;-86
2021/06/04 02:04:39;;;;;;;66.60;19.45;;;17.00;99.90;;;;;;5011185;28;20487;-86
2021/06/04 02:07:09;;;;;;;63.78;20.70;;;17.00;99.90;;;;;;4994299;28;20058;-86
2021/06/04 02:09:36;;;;;;;30.83;19.75;;;16.90;99.90;;;;;;4993733;28;20041;-86
2021/06/04 02:12:04;;;;;;;29.30;18.98;;;16.90;99.90;;;;;;4978070;28;20129;-86
2021/06/04 02:14:37;;;;;;;52.03;20.67;;;16.90;99.90;;;;;;4977720;28;20121;-86
2021/06/04 02:17:15;;;;;;;33.42;19.30;;;16.90;99.90;;;;;;5011213;28;20034;-86
2021/06/04 02:20:08;;;;;;;53.15;18.95;;;17.00;99.90;;;;;;4993609;28;20459;-86
2021/06/04 02:22:50;;;;;;;26.45;18.95;;;17.00;99.90;;;;;;4993535;28;20039;-87
2021/06/04 02:25:17;;;;;;;77.10;20.75;;;17.00;99.90;;;;;;5011052;28;20406;-86
2021/06/04 02:27:50;;;;;;;42.83;20.40;;;17.00;99.90;;;;;;4993579;28;20053;-86
2021/06/04 02:30:35;;;;;;;75.50;23.85;;;17.00;99.90;;;;;;5010991;28;20442;-86
2021/06/04 02:33:19;;;;;;;135.60;24.83;;;17.00;99.90;;;;;;4992806;28;20070;-86
2021/06/04 02:35:58;;;;;;;329.40;34.25;;;17.00;99.90;;;;;;5010388;28;20034;-86
2021/06/04 02:38:33;;;;;;;308.38;29.67;;;16.90;99.90;;;;;;4993188;28;20035;-86
2021/06/04 02:41:07;;;;;;;77.57;21.83;;;16.90;99.90;;;;;;4993225;28;20035;-86
2021/06/04 02:43:36;;;;;;;128.35;24.38;;;16.90;99.90;;;;;;4993108;28;20380;-85
2021/06/04 02:46:09;;;;;;;50.63;21.40;;;16.90;99.90;;;;;;4993396;28;20097;-86
2021/06/04 02:48:36;;;;;;;75.65;23.77;;;16.90;99.90;;;;;;4993137;28;20043;-86
2021/06/04 02:51:24;;;;;;;124.97;24.70;;;16.90;99.90;;;;;;4977552;28;20046;-86
2021/06/04 02:53:56;;;;;;;131.48;27.00;;;16.90;99.90;;;;;;4993178;28;20506;-86
2021/06/04 02:56:25;;;;;;;76.32;23.90;;;16.90;99.90;;;;;;4993397;28;20042;-86
2021/06/04 02:58:57;;;;;;;145.57;26.25;;;16.90;99.90;;;;;;5009419;28;20589;-86
2021/06/04 03:01:28;;;;;;;76.93;27.13;;;17.00;99.90;;;;;;4993190;28;20079;-86
2021/06/04 03:03:58;;;;;;;80.45;25.63;;;17.00;99.90;;;;;;5010719;28;20442;-86
2021/06/04 03:06:33;;;;;;;74.20;23.38;;;16.90;99.90;;;;;;4993224;28;20051;-87
2021/06/04 03:09:01;;;;;;;209.10;30.13;;;16.90;99.90;;;;;;4993486;28;20089;-86
2021/06/04 03:11:32;;;;;;;189.00;29.45;;;17.00;99.90;;;;;;4977505;28;20046;-86
2021/06/04 03:14:01;;;;;;;175.18;24.90;;;16.90;99.90;;;;;;4977384;28;20467;-86
2021/06/04 03:16:28;;;;;;;48.88;22.52;;;17.00;99.90;;;;;;5009805;28;20034;-86
2021/06/04 03:19:03;;;;;;;61.38;21.40;;;17.00;99.90;;;;;;4976570;28;20475;-86
2021/06/04 03:21:34;;;;;;;109.00;25.05;;;17.00;99.90;;;;;;4991782;28;20038;-86
2021/06/04 03:24:05;;;;;;;49.97;22.67;;;17.00;99.90;;;;;;4991865;28;20383;-86
2021/06/04 03:26:33;;;;;;;71.70;24.85;;;17.00;99.90;;;;;;5009817;28;20077;-86
2021/06/04 03:29:05;;;;;;;50.90;22.75;;;17.00;99.90;;;;;;4992802;28;20414;-85
2021/06/04 03:31:35;;;;;;;67.13;22.33;;;17.00;99.90;;;;;;5009460;28;20038;-85
2021/06/04 03:34:05;;;;;;;41.20;21.65;;;17.10;99.90;;;;;;4992536;28;20066;-86
2021/06/04 03:36:35;;;;;;;28.67;20.15;;;17.10;99.90;;;;;;5009344;28;20110;-86
2021/06/04 03:39:06;;;;;;;27.17;20.80;;;17.00;99.90;;;;;;4995558;28;20380;-86
2021/06/04 03:41:34;;;;;;;28.02;21.48;;;17.10;99.90;;;;;;5028720;28;20038;-86
2021/06/04 03:44:01;;;;;;;34.70;20.85;;;17.10;99.90;;;;;;4995608;28;20497;-86
2021/06/04 03:46:28;;;;;;;39.70;21.17;;;17.10;99.90;;;;;;4992373;28;20041;-86
2021/06/04 03:48:55;;;;;;;39.42;21.05;;;17.10;99.90;;;;;;4976036;28;20117;-87
2021/06/04 03:51:33;;;;;;;56.22;23.73;;;17.10;99.90;;;;;;4973769;28;20229;-87
2021/06/04 03:54:00;;;;;;;29.98;21.15;;;17.10;99.90;;;;;;5007906;28;20439;-87
2021/06/04 03:56:28;;;;;;;35.55;24.38;;;17.10;99.90;;;;;;5004059;28;20031;-86
2021/06/04 03:58:55;;;;;;;31.30;23.13;;;17.20;99.90;;;;;;4993865;28;20060;-86
2021/06/04 04:01:36;;;;;;;34.85;23.73;;;17.20;99.90;;;;;;4979605;28;20100;-86
2021/06/04 04:04:04;;;;;;;65.72;27.30;;;17.20;99.90;;;;;;5011347;28;20038;-86
2021/06/04 04:06:31;;;;;;;51.53;27.88;;;17.20;99.90;;;;;;4995527;28;20035;-86
2021/06/04 04:08:58;;;;;;;36.97;24.55;;;17.20;99.90;;;;;;5010825;28;20391;-85
2021/06/04 04:11:26;;;;;;;33.83;24.27;;;17.20;99.90;;;;;;4995329;28;20045;-86
2021/06/04 04:13:53;;;;;;;50.85;25.10;;;17.20;99.90;;;;;;5010927;28;20034;-85
2021/06/04 04:16:21;;;;;;;33.13;23.95;;;17.20;99.90;;;;;;4995350;28;20090;-86
2021/06/04 04:18:47;;;;;;;32.15;24.35;;;17.30;99.90;;;;;;4994644;28;20039;-85
2021/06/04 04:21:15;;;;;;;29.73;22.88;;;17.30;99.90;;;;;;4994846;28;20077;-85
2021/06/04 04:23:50;;;;;;;35.80;25.73;;;17.30;99.90;;;;;;5010771;28;20038;-87
2021/06/04 04:26:20;;;;;;;43.63;24.58;;;17.30;99.90;;;;;;5011278;28;20038;-86
2021/06/04 04:28:49;;;;;;;35.75;25.45;;;17.30;99.90;;;;;;5010815;28;20047;-86
2021/06/04 04:31:20;;;;;;;39.60;26.17;;;17.30;99.90;;;;;;4995070;28;20088;-86
2021/06/04 04:33:47;;;;;;;45.45;27.27;;;17.30;99.90;;;;;;5010661;28;20085;-86
2021/06/04 04:36:19;;;;;;;40.15;27.42;;;17.30;99.90;;;;;;4995045;28;20399;-86
2021/06/04 04:38:46;;;;;;;33.70;24.17;;;17.40;99.90;;;;;;5010648;28;20039;-86
2021/06/04 04:41:14;;;;;;;28.27;23.95;;;17.40;99.90;;;;;;4979395;28;20533;-86
2021/06/04 04:43:47;;;;;;;36.03;25.02;;;17.40;99.90;;;;;;5010792;28;20375;-87
2021/06/04 04:46:16;;;;;;;29.58;23.55;;;17.40;99.90;;;;;;5011417;28;20121;-87
2021/06/04 04:48:43;;;;;;;32.97;24.50;;;17.40;99.90;;;;;;4994844;28;20050;-87
2021/06/04 04:51:13;;;;;;;31.85;24.85;;;17.40;99.90;;;;;;4995404;28;20129;-86
2021/06/04 04:53:40;;;;;;;34.72;24.98;;;17.40;99.90;;;;;;5010102;28;20101;-86
2021/06/04 04:56:08;;;;;;;44.55;27.98;;;17.40;99.90;;;;;;4978449;28;20504;-86
2021/06/04 04:58:36;;;;;;;48.22;28.42;;;17.50;99.90;;;;;;4979177;28;20467;-86
2021/06/04 05:01:06;;;;;;;44.35;28.45;;;17.40;99.90;;;;;;4994505;28;20501;-87
2021/06/04 05:03:33;;;;;;;40.95;27.17;;;17.40;99.90;;;;;;5011016;28;20125;-87
2021/06/04 05:06:01;;;;;;;68.47;32.67;;;17.40;99.90;;;;;;5010643;28;20505;-88
2021/06/04 05:08:28;;;;;;;47.83;29.45;;;17.50;99.90;;;;;;4995195;28;20049;-88
2021/06/04 05:10:56;;;;;;;35.33;26.40;;;17.50;99.90;;;;;;4978965;28;20043;-88
2021/06/04 05:13:23;;;;;;;42.30;27.83;;;17.60;99.90;;;;;;4995422;28;20046;-87
2021/06/04 05:15:50;;;;;;;39.60;27.48;;;17.70;99.90;;;;;;4994137;28;20049;-87
2021/06/04 05:18:17;;;;;;;42.15;29.35;;;17.70;99.90;;;;;;4968931;28;20034;-86
2021/06/04 05:20:45;;;;;;;37.05;27.10;;;17.70;99.90;;;;;;4990742;28;20074;-87
2021/06/04 05:23:15;;;;;;;39.63;27.85;;;17.70;99.90;;;;;;4994851;28;20048;-86
2021/06/04 05:25:45;;;;;;;39.33;27.63;;;17.70;99.90;;;;;;4999916;28;20801;-86
2021/06/04 05:28:15;;;;;;;36.85;27.20;;;17.80;99.90;;;;;;5004926;28;20058;-86
2021/06/04 05:30:45;;;;;;;42.00;29.77;;;17.80;99.90;;;;;;4990821;28;20498;-89
2021/06/04 05:33:22;;;;;;;52.85;31.55;;;17.80;99.90;;;;;;4991458;28;20035;-89
2021/06/04 05:35:49;;;;;;;36.75;28.10;;;17.90;99.90;;;;;;5008278;28;20050;-87
2021/06/04 05:38:18;;;;;;;38.88;28.55;;;17.90;99.90;;;;;;4991912;28;20042;-88
2021/06/04 05:40:48;;;;;;;38.78;27.95;;;18.00;99.90;;;;;;4978406;28;20037;-87
2021/06/04 05:43:20;;;;;;;40.42;29.30;;;18.00;99.90;;;;;;4998602;28;20038;-88
2021/06/04 05:45:47;;;;;;;38.22;28.17;;;18.10;99.90;;;;;;4991063;28;20472;-87
2021/06/04 05:48:16;;;;;;;39.15;27.17;;;18.10;99.90;;;;;;4991844;28;20035;-91
2021/06/04 05:50:47;;;;;;;36.20;26.70;;;18.10;99.90;;;;;;5001786;28;20034;-88
2021/06/04 05:53:24;;;;;;;38.67;28.85;;;18.10;99.90;;;;;;5009144;28;20037;-88
2021/06/04 05:55:51;;;;;;;37.90;28.75;;;18.10;99.90;;;;;;4990847;28;20050;-89
2021/06/04 05:58:20;;;;;;;40.25;29.58;;;18.20;99.90;;;;;;4959764;28;20181;-89
2021/06/04 06:00:50;;;;;;;37.95;28.35;;;18.20;99.90;;;;;;4959215;28;20442;-89
2021/06/04 06:03:25;;;;;;;39.78;29.00;;;18.30;99.90;;;;;;5008604;28;20035;-90
2021/06/04 06:05:52;;;;;;;39.85;27.67;;;18.30;99.90;;;;;;4991352;28;20035;-89
2021/06/04 06:08:20;;;;;;;36.33;28.25;;;18.30;99.90;;;;;;4978939;28;20045;-90
2021/06/04 06:10:47;;;;;;;41.28;29.95;;;18.40;99.90;;;;;;4978826;28;20043;-90
2021/06/04 06:13:14;;;;;;;42.78;28.02;;;18.40;99.90;;;;;;4947791;28;20070;-90
2021/06/04 06:15:41;;;;;;;41.90;29.85;;;18.50;99.90;;;;;;4963643;28;20070;-91
2021/06/04 06:18:08;;;;;;;44.67;30.13;;;18.50;99.90;;;;;;4994649;28;20031;-91
2021/06/04 06:20:43;;;;;;;40.38;29.52;;;18.60;99.90;;;;;;4963752;28;20034;-91
2021/06/04 06:23:14;;;;;;;40.03;29.35;;;18.60;99.90;;;;;;4994965;28;20054;-91
2021/06/04 06:25:45;;;;;;;43.88;30.08;;;18.60;99.90;;;;;;5021008;28;20030;-90
2021/06/04 06:28:16;;;;;;;47.63;31.52;;;18.50;99.90;;;;;;5011241;28;20034;-90
2021/06/04 06:30:44;;;;;;;46.90;31.20;;;18.60;99.90;;;;;;4996685;28;20501;-90
2021/06/04 06:33:11;;;;;;;45.03;30.65;;;18.60;99.90;;;;;;5007521;28;20034;-90
2021/06/04 06:35:52;;;;;;;42.25;30.75;;;18.70;99.90;;;;;;4994513;28;20086;-90
2021/06/04 06:38:21;;;;;;;40.63;29.70;;;18.70;99.90;;;;;;5011722;28;20049;-90
2021/06/04 06:40:48;;;;;;;41.28;29.95;;;18.80;99.90;;;;;;4995224;28;20038;-90
2021/06/04 06:43:16;;;;;;;43.67;31.50;;;18.80;99.90;;;;;;4979351;28;20053;-90
2021/06/04 06:45:43;;;;;;;42.25;30.90;;;18.80;99.90;;;;;;4995030;28;20031;-91
2021/06/04 06:48:11;;;;;;;48.42;32.58;;;18.90;99.90;;;;;;4994935;28;20126;-90
2021/06/04 06:50:46;;;;;;;45.75;32.60;;;18.90;99.90;;;;;;4995616;28;20039;-90
2021/06/04 06:53:15;;;;;;;47.60;31.35;;;18.90;99.90;;;;;;4998880;28;20085;-91
2021/06/04 06:55:44;;;;;;;44.22;31.40;;;18.90;99.90;;;;;;5004251;28;20047;-91
2021/06/04 06:58:13;;;;;;;47.25;30.67;;;18.90;99.90;;;;;;5010031;28;20043;-90
2021/06/04 07:00:44;;;;;;;48.33;32.10;;;18.90;99.90;;;;;;4994253;28;20169;-92
2021/06/04 07:03:14;;;;;;;45.05;31.92;;;18.90;99.90;;;;;;5009995;28;20049;-91
2021/06/04 07:05:41;;;;;;;41.70;31.73;;;19.00;99.90;;;;;;5010833;28;20126;-91
2021/06/04 07:08:10;;;;;;;42.03;31.80;;;19.00;99.90;;;;;;5010034;28;20057;-91
2021/06/04 07:10:39;;;;;;;43.60;31.45;;;19.10;99.90;;;;;;4994647;28;20030;-91
2021/06/04 07:13:10;;;;;;;41.80;31.25;;;19.10;99.90;;;;;;5010011;28;20038;-91
2021/06/04 07:15:39;;;;;;;46.58;32.45;;;19.30;99.90;;;;;;5010486;28;20398;-90
2021/06/04 07:18:07;;;;;;;47.80;34.13;;;19.30;99.90;;;;;;5009500;28;20089;-91
2021/06/04 07:20:40;;;;;;;46.63;34.35;;;19.30;99.90;;;;;;5010398;28;20042;-91
2021/06/04 07:23:10;;;;;;;47.15;33.92;;;19.30;99.90;;;;;;4977826;28;20178;-90
2021/06/04 07:25:40;;;;;;;45.83;34.25;;;19.30;99.90;;;;;;5010050;28;20042;-90
2021/06/04 07:28:10;;;;;;;43.67;32.92;;;19.40;99.90;;;;;;5009515;28;20394;-90
2021/06/04 07:30:40;;;;;;;43.50;32.75;;;19.50;99.90;;;;;;4978832;28;20038;-89
2021/06/04 07:33:13;;;;;;;43.78;31.88;;;19.70;99.90;;;;;;5009669;28;20098;-89
2021/06/04 07:35:41;;;;;;;49.08;35.65;;;19.60;99.90;;;;;;4994131;28;20050;-89
2021/06/04 07:38:08;;;;;;;44.67;33.38;;;19.70;99.90;;;;;;5009249;28;20065;-89
2021/06/04 07:40:37;;;;;;;43.78;31.88;;;19.90;99.90;;;;;;4994078;28;20090;-89
2021/06/04 07:43:10;;;;;;;43.97;32.50;;;19.90;99.90;;;;;;4992981;28;20093;-89
2021/06/04 07:45:42;;;;;;;42.35;30.73;;;20.00;99.90;;;;;;5009514;28;20069;-89
2021/06/04 07:48:12;;;;;;;40.30;31.35;;;20.10;99.90;;;;;;4994564;28;20050;-89
2021/06/04 07:50:41;;;;;;;44.60;31.92;;;20.30;99.90;;;;;;4989858;29;20032;-80
2021/06/04 07:53:10;;;;;;;37.72;28.45;;;20.40;99.90;;;;;;4988713;28;20050;-81
2021/06/04 07:55:37;;;;;;;36.83;29.02;;;20.50;99.90;;;;;;4988007;29;20059;-79
2021/06/04 07:58:04;;;;;;;36.40;28.30;;;20.60;99.90;;;;;;4987636;29;20381;-81
2021/06/04 08:00:32;;;;;;;35.30;27.83;;;20.70;99.90;;;;;;4988082;29;20398;-77
2021/06/04 08:03:02;;;;;;;37.33;26.90;;;20.70;99.90;;;;;;4971610;29;20046;-78
2021/06/04 08:05:30;;;;;;;35.75;27.67;;;20.80;99.90;;;;;;4989257;28;20035;-79
2021/06/04 08:07:57;;;;;;;35.25;25.95;;;21.00;99.90;;;;;;4987922;29;20043;-80
2021/06/04 08:10:25;;;;;;;31.38;24.90;;;21.00;99.90;;;;;;4988499;29;20090;-80
2021/06/04 08:12:52;;;;;;;36.80;26.10;;;20.90;99.90;;;;;;4987851;29;20043;-80
2021/06/04 08:15:29;;;;;;;33.25;24.48;;;21.00;99.90;;;;;;4988948;28;20834;-80
2021/06/04 08:17:57;;;;;;;29.25;23.73;;;20.90;99.90;;;;;;4989165;28;20039;-80
2021/06/04 08:20:28;;;;;;;31.90;24.27;;;21.00;99.90;;;;;;4988471;28;20494;-80
2021/06/04 08:22:58;;;;;;;30.17;23.75;;;21.10;99.90;;;;;;4988964;28;20063;-81
2021/06/04 08:25:33;;;;;;;32.92;25.27;;;21.20;99.90;;;;;;4971764;29;20032;-80
2021/06/04 08:28:01;;;;;;;32.83;26.13;;;21.30;99.90;;;;;;4989351;28;20070;-81
2021/06/04 08:30:28;;;;;;;32.88;24.65;;;21.40;99.90;;;;;;4988399;28;20122;-81
2021/06/04 08:32:55;;;;;;;32.42;26.40;;;21.30;99.90;;;;;;4987869;29;20039;-82
2021/06/04 08:35:23;;;;;;;28.50;23.65;;;21.40;99.90;;;;;;4987857;29;20554;-83
2021/06/04 08:37:51;;;;;;;30.77;22.50;;;21.40;99.90;;;;;;4971982;29;20077;-80
2021/06/04 08:40:24;;;;;;;26.67;21.95;;;21.50;99.90;;;;;;4995068;28;20483;-80
2021/06/04 08:43:08;;;;;;;26.13;22.05;;;21.50;99.90;;;;;;5003422;28;20110;-82
2021/06/04 08:46:01;;;;;;;28.00;21.27;;;21.60;99.90;;;;;;5007580;28;20046;-81
2021/06/04 08:48:36;;;;;;;29.90;23.27;;;21.60;99.90;;;;;;4995477;28;20035;-81
2021/06/04 08:51:25;;;;;;;29.65;22.23;;;21.70;99.90;;;;;;4998839;28;20043;-81
2021/06/04 08:54:12;;;;;;;27.23;21.33;;;21.80;99.90;;;;;;4995560;28;20395;-80
2021/06/04 08:56:50;;;;;;;24.50;20.33;;;22.00;99.90;;;;;;4995537;28;20399;-81
2021/06/04 08:59:19;;;;;;;26.48;22.10;;;22.10;99.90;;;;;;4994329;28;20045;-82
2021/06/04 09:02:06;;;;;;;29.48;20.58;;;22.20;99.90;;;;;;4992246;28;20110;-81
2021/06/04 09:04:52;;;;;;;21.65;19.25;;;22.30;99.90;;;;;;5001242;28;20053;-80
2021/06/04 09:07:33;;;;;;;25.40;18.90;;;22.50;99.90;;;;;;4997895;28;20035;-79
2021/06/04 09:10:15;;;;;;;26.30;19.95;;;22.50;99.90;;;;;;4993549;28;20046;-85
2021/06/04 09:13:10;;;;;;;26.30;18.70;;;22.60;99.90;;;;;;4998884;28;20501;-78
2021/06/04 09:15:39;;;;;;;22.90;17.30;;;22.70;99.90;;;;;;4991733;28;20059;-81
2021/06/04 09:18:32;;;;;;;22.63;18.88;;;22.80;99.90;;;;;;4977363;29;20043;-85
2021/06/04 09:21:06;;;;;;;23.02;17.10;;;22.90;99.90;;;;;;4998253;28;20090;-87
2021/06/04 09:23:43;;;;;;;21.33;15.93;;;22.90;99.90;;;;;;5005806;28;20031;-86
2021/06/04 09:26:16;;;;;;;18.58;14.82;;;23.00;99.90;;;;;;4994704;28;20425;-82
2021/06/04 09:28:47;;;;;;;21.58;16.80;;;23.20;99.90;;;;;;4994013;28;20121;-87
2021/06/04 09:31:25;;;;;;;23.27;18.13;;;23.10;99.90;;;;;;4988102;29;20043;-88
2021/06/04 09:34:10;;;;;;;23.48;18.92;;;23.10;99.90;;;;;;4989743;28;20040;-88
2021/06/04 09:36:55;;;;;;;24.45;17.15;;;23.40;99.90;;;;;;4989120;29;20039;-89
2021/06/04 09:39:29;;;;;;;20.45;15.20;;;23.70;99.90;;;;;;4972852;29;20047;-88
2021/06/04 09:42:12;;;;;;;17.17;12.55;;;23.60;99.90;;;;;;4991055;28;20126;-88
2021/06/04 09:45:18;;;;;;;16.95;12.85;;;23.70;99.90;;;;;;4991982;29;20098;-90
2021/06/04 09:48:03;;;;;;;17.20;14.35;;;23.70;99.90;;;;;;4991728;29;20063;-87
2021/06/04 09:50:39;;;;;;;21.38;14.65;;;23.80;99.90;;;;;;5008334;28;20093;-86
2021/06/04 09:53:25;;;;;;;19.23;15.13;;;24.00;99.90;;;;;;5011575;28;20043;-90
2021/06/04 09:56:16;;;;;;;16.60;13.40;;;24.20;99.90;;;;;;4975307;29;20121;-86
2021/06/04 09:58:55;;;;;;;15.32;12.93;;;24.20;99.90;;;;;;4980140;28;20055;-84
2021/06/04 10:01:28;;;;;;;19.13;13.15;;;24.10;99.90;;;;;;5009711;28;20065;-85
2021/06/04 10:03:57;;;;;;;17.90;13.18;;;24.20;99.90;;;;;;4997177;28;20087;-87
2021/06/04 10:06:44;;;;;;;16.20;12.82;;;24.20;99.90;;;;;;4991733;29;20039;-88
2021/06/04 10:09:25;;;;;;;12.85;10.05;;;24.40;99.90;;;;;;4977904;29;20102;-85
2021/06/04 10:12:17;;;;;;;13.50;10.55;;;24.60;99.90;;;;;;4992131;29;20075;-87
2021/06/04 10:15:23;;;;;;;16.40;13.30;;;24.70;99.90;;;;;;4991197;29;20394;-88
2021/06/04 10:20:46;;;;;;;15.98;13.80;;;24.60;99.90;;;;;;4990082;29;20046;-87
2021/06/04 10:23:36;;;;;;;16.25;12.05;;;24.60;99.90;;;;;;5000761;28;20143;-86
2021/06/04 10:26:17;;;;;;;15.48;12.57;;;24.80;99.90;;;;;;5011084;28;20090;-87
2021/06/04 10:28:53;;;;;;;18.15;13.70;;;24.80;99.90;;;;;;5010516;28;20069;-85
2021/06/04 10:31:31;;;;;;;17.23;14.18;;;25.00;99.90;;;;;;5010247;28;20043;-87
2021/06/04 10:34:02;;;;;;;16.02;13.25;;;25.00;99.90;;;;;;5011633;28;20059;-85
2021/06/04 10:36:35;;;;;;;19.27;15.43;;;25.00;99.90;;;;;;5006443;28;20475;-84
2021/06/04 10:39:29;;;;;;;16.85;14.95;;;25.10;99.90;;;;;;5007204;28;20061;-85
2021/06/04 10:42:03;;;;;;;19.27;15.48;;;25.20;99.90;;;;;;4994338;28;20380;-85
2021/06/04 10:44:44;;;;;;;19.55;15.80;;;25.00;99.90;;;;;;4990014;28;20058;-85
2021/06/04 10:47:42;;;;;;;20.63;15.32;;;25.00;99.90;;;;;;4997376;28;20082;-85
2021/06/04 10:50:27;;;;;;;19.30;14.57;;;25.10;99.90;;;;;;4974776;29;20550;-86
2021/06/04 10:53:19;;;;;;;16.23;12.32;;;25.20;99.90;;;;;;4989308;28;20051;-87
2021/06/04 10:56:04;;;;;;;17.45;11.73;;;25.20;99.90;;;;;;4990268;29;20043;-93
2021/06/04 10:59:11;;;;;;;14.15;10.32;;;25.40;99.90;;;;;;4989912;29;20085;-87
2021/06/04 11:01:49;;;;;;;13.90;10.48;;;25.60;99.90;;;;;;4990620;28;20063;-85
2021/06/04 11:04:49;;;;;;;13.85;11.80;;;25.60;99.90;;;;;;4995384;28;20043;-84
2021/06/04 11:07:27;;;;;;;16.25;12.38;;;25.70;99.90;;;;;;4989537;28;20047;-83
2021/06/04 11:10:34;;;;;;;19.10;11.77;;;25.70;99.90;;;;;;5003414;28;20489;-85
2021/06/04 11:13:04;;;;;;;18.38;13.77;;;25.90;99.90;;;;;;4995954;28;20043;-84
2021/06/04 11:15:49;;;;;;;14.73;12.25;;;25.70;99.90;;;;;;4992231;28;20067;-84
2021/06/04 11:18:36;;;;;;;16.70;12.38;;;25.80;99.90;;;;;;4999497;28;20031;-86
2021/06/04 11:21:05;;;;;;;13.55;10.43;;;25.80;99.90;;;;;;5007531;28;20494;-85
2021/06/04 11:23:43;;;;;;;14.13;10.00;;;26.10;99.90;;;;;;5004290;28;20038;-85
2021/06/04 11:26:39;;;;;;;16.25;10.70;;;26.10;99.90;;;;;;4989683;29;20463;-83
2021/06/04 11:29:16;;;;;;;12.30;9.75;;;26.20;99.90;;;;;;5008541;28;20049;-84
2021/06/04 11:32:17;;;;;;;18.33;10.82;;;26.30;99.90;;;;;;4999793;28;20038;-83
2021/06/04 11:34:53;;;;;;;10.52;8.98;;;26.30;99.90;;;;;;4992754;28;20039;-83
2021/06/04 11:37:38;;;;;;;11.73;8.23;;;26.40;99.90;;;;;;5002291;28;20047;-83
2021/06/04 11:40:14;;;;;;;12.75;9.32;;;26.50;99.90;;;;;;4994540;28;20051;-84
2021/06/04 11:43:07;;;;;;;12.07;8.38;;;26.40;99.50;;;;;;4990673;28;20454;-85
2021/06/04 11:45:36;;;;;;;11.27;7.55;;;26.30;99.40;;;;;;4996948;28;20676;-83
2021/06/04 11:48:25;;;;;;;11.32;6.75;;;26.40;98.90;;;;;;4995993;28;20031;-84
2021/06/04 11:51:18;;;;;;;10.27;7.47;;;26.40;96.50;;;;;;4999586;28;20039;-85
2021/06/04 11:53:55;;;;;;;13.07;8.80;;;26.30;95.20;;;;;;4986712;28;20487;-85
2021/06/04 11:56:52;;;;;;;12.57;8.27;;;26.30;97.70;;;;;;4971866;29;20055;-84
2021/06/04 11:59:58;;;;;;;12.75;9.27;;;26.50;99.80;;;;;;4992986;28;20091;-85
2021/06/04 12:02:28;;;;;;;;;;;26.50;99.90;;;;;;4925127;28;20066;-84
2021/06/04 12:05:29;;;;;;;11.82;8.60;;;26.70;98.80;;;;;;5000167;28;19925;-84
2021/06/04 12:08:17;;;;;;;12.65;8.68;;;26.70;99.90;;;;;;4998014;28;20451;-85
2021/06/04 12:10:47;;;;;;;10.32;7.72;;;26.80;98.20;;;;;;4999516;28;20035;-87
2021/06/04 12:13:34;;;;;;;12.80;8.90;;;26.90;99.40;;;;;;4995291;28;20058;-85
2021/06/04 12:19:22;;;;;;;12.93;8.65;;;26.50;98.00;;;;;;4989365;29;20040;-83
2021/06/04 12:21:50;;;;;;;12.43;7.82;;;26.60;96.60;;;;;;4987982;29;20527;-81
2021/06/04 12:24:19;;;;;;;11.43;6.50;;;26.50;94.80;;;;;;4988084;29;20035;-80
2021/06/04 12:26:53;;;;;;;10.57;7.68;;;26.70;98.20;;;;;;4986898;29;20710;-81
2021/06/04 12:29:27;;;;;;;10.80;6.78;;;27.00;98.90;;;;;;4997988;28;20050;-81
2021/06/04 12:32:16;;;;;;;7.63;6.45;;;27.00;96.10;;;;;;4991552;28;20043;-85
2021/06/04 12:34:49;;;;;;;9.43;5.90;;;27.20;95.30;;;;;;4997297;28;20035;-82
2021/06/04 12:37:25;;;;;;;8.88;5.40;;;27.40;94.10;;;;;;4991731;28;20122;-83
2021/06/04 12:40:01;;;;;;;9.63;6.35;;;27.20;92.20;;;;;;5003906;28;20035;-82
2021/06/04 12:42:42;;;;;;;8.95;5.75;;;27.40;92.40;;;;;;5006440;28;20039;-82
2021/06/04 12:45:15;;;;;;;9.07;5.80;;;27.40;91.10;;;;;;5008242;28;20517;-83
2021/06/04 12:47:49;;;;;;;8.88;6.22;;;27.40;94.20;;;;;;5007769;28;20043;-83
2021/06/04 12:50:19;;;;;;;9.02;6.00;;;27.30;92.40;;;;;;5008417;28;20031;-84
2021/06/04 12:52:48;;;;;;;11.02;6.15;;;27.40;92.40;;;;;;4990706;28;20054;-89
2021/06/04 12:55:21;;;;;;;10.35;6.07;;;27.40;90.70;;;;;;4972015;29;20550;-85
2021/06/04 12:57:49;;;;;;;10.23;5.55;;;27.50;91.70;;;;;;4989920;28;20110;-85
2021/06/04 13:00:16;;;;;;;12.50;6.53;;;27.70;92.70;;;;;;5007054;28;20461;-83
2021/06/04 13:02:43;;;;;;;8.43;6.32;;;27.60;93.10;;;;;;4992561;28;20059;-84
2021/06/04 13:05:11;;;;;;;10.15;7.28;;;27.70;93.90;;;;;;4994402;28;20490;-86
2021/06/04 13:07:42;;;;;;;11.27;8.18;;;27.70;91.30;;;;;;4985186;28;20410;-91
2021/06/04 13:10:26;;;;;;;11.02;7.40;;;27.50;89.30;;;;;;4984785;28;20039;-89